Terminal Aerodrome Forecast
Issued by NWS Charleston, WV

Current Version | Previous Version | Graphics & Text | Print | Product List | Glossary On
Versions: 1 2 3 4 5 6 7 8 9 10 11 12 13 14 15 16 17 18 19 20 21 22 23 24 25 26 27 28 29 30 31 32 33 34
000
FTUS41 KRLX 231500 AAC
TAFEKN
TAF AMD
KEKN 231510Z 2315/2412 30007KT P6SM OVC007
      TEMPO 2315/2316 3SM -RA BR
     FM231600 30007G17KT P6SM OVC010
     FM231700 30007KT P6SM BKN018
     FM231800 29010G16KT P6SM BKN025
     FM232300 29006KT P6SM SCT250
     FM240500 VRB03KT 6SM BR SCT020
     FM240600 VRB03KT 3SM BR SCT020=

USA.gov is the U.S. government's official web portal to all federal, state and local government web resources and services.